Time;durP1;ratioP1;P1;durP2;ratioP2;P2;SDS_P1;SDS_P2;PMS_P1;PMS_P2;Temp;Humidity;BMP_temperature;BMP_pressure;BME280_temperature;BME280_humidity;BME280_pressure;Samples;Min_cycle;Max_cycle;Signal;HPM_P1;HPM_P2
2022/10/27 00:00:40;;;;;;;8.03;3.50;;;10.30;99.90;;;;;;5075478;28;20489;-81
2022/10/27 00:03:08;;;;;;;6.80;3.67;;;;;;;;;;5074465;28;20465;-81
2022/10/27 00:05:34;;;;;;;4.33;2.80;;;10.10;99.90;;;;;;5075566;28;20444;-80
2022/10/27 00:08:01;;;;;;;11.97;3.60;;;10.50;99.90;;;;;;5075607;28;20438;-80
2022/10/27 00:10:30;;;;;;;5.17;3.17;;;10.10;99.90;;;;;;5075434;28;20807;-80
2022/10/27 00:12:56;;;;;;;4.33;3.30;;;10.00;99.90;;;;;;5074176;28;20453;-80
2022/10/27 00:15:23;;;;;;;6.47;2.87;;;;;;;;;;5075499;28;20452;-80
2022/10/27 00:17:51;;;;;;;6.70;3.43;;;;;;;;;;5075376;28;20446;-81
2022/10/27 00:20:17;;;;;;;5.10;3.50;;;10.00;99.90;;;;;;5075222;28;20489;-81
2022/10/27 00:22:44;;;;;;;4.73;3.27;;;;;;;;;;5075268;28;20453;-81
2022/10/27 00:25:12;;;;;;;5.47;3.60;;;;;;;;;;5075133;28;20449;-80
2022/10/27 00:27:40;;;;;;;8.40;3.53;;;9.80;99.90;;;;;;5074054;28;20473;-80
2022/10/27 00:30:08;;;;;;;13.70;3.37;;;9.90;99.90;;;;;;5075215;28;20448;-80
2022/10/27 00:32:34;;;;;;;5.30;2.97;;;10.00;99.90;;;;;;5075111;28;20925;-81
2022/10/27 00:35:02;;;;;;;6.50;3.57;;;;;;;;;;5074862;28;20463;-81
2022/10/27 00:37:28;;;;;;;11.93;3.17;;;10.10;99.90;;;;;;5074967;28;20446;-80
2022/10/27 00:39:55;;;;;;;4.07;2.67;;;10.00;99.90;;;;;;5074868;28;20497;-80
2022/10/27 00:42:22;;;;;;;7.30;3.20;;;10.50;99.90;;;;;;5073689;28;20460;-80
2022/10/27 00:44:50;;;;;;;7.30;2.93;;;9.90;99.90;;;;;;5074779;28;20452;-80
2022/10/27 00:47:22;;;;;;;4.60;3.13;;;9.90;99.90;;;;;;5074813;28;20445;-80
2022/10/27 00:49:55;;;;;;;10.60;3.57;;;9.80;99.90;;;;;;5074687;28;20454;-80
2022/10/27 00:52:29;;;;;;;4.43;3.20;;;9.60;99.90;;;;;;5074659;28;20499;-80
2022/10/27 00:55:00;;;;;;;7.83;3.20;;;9.90;99.90;;;;;;5074577;28;20451;-80
2022/10/27 00:57:28;;;;;;;4.00;3.60;;;9.90;99.90;;;;;;5073453;28;20446;-80
2022/10/27 00:59:58;;;;;;;5.63;3.17;;;9.70;99.90;;;;;;5074294;28;20830;-80
2022/10/27 01:02:25;;;;;;;6.23;3.50;;;;;;;;;;5074534;28;20831;-83
2022/10/27 01:04:56;;;;;;;7.27;3.70;;;9.80;99.90;;;;;;5074328;28;20450;-80
2022/10/27 01:07:24;;;;;;;8.43;3.53;;;9.70;99.90;;;;;;5074339;28;20483;-80
2022/10/27 01:09:51;;;;;;;5.73;3.00;;;;;;;;;;5074285;28;20477;-80
2022/10/27 01:12:18;;;;;;;6.07;3.33;;;10.10;99.90;;;;;;5072897;28;20445;-81
2022/10/27 01:14:45;;;;;;;7.07;3.37;;;9.50;99.90;;;;;;5073934;28;20460;-80
2022/10/27 01:17:29;;;;;;;7.43;3.87;;;9.50;99.90;;;;;;5074069;28;20937;-80
2022/10/27 01:20:30;;;;;;;5.17;3.53;;;9.60;99.90;;;;;;5073968;28;20492;-80
2022/10/27 01:23:01;;;;;;;8.63;3.27;;;9.50;99.90;;;;;;5073904;28;20441;-80
2022/10/27 01:26:11;;;;;;;5.23;2.93;;;9.50;99.90;;;;;;5073992;28;20475;-81
2022/10/27 01:29:14;;;;;;;7.90;3.37;;;9.10;99.90;;;;;;5073915;28;20805;-80
2022/10/27 01:31:48;;;;;;;5.33;2.90;;;9.60;99.90;;;;;;5073751;28;20462;-80
2022/10/27 01:34:21;;;;;;;5.20;2.80;;;9.60;99.90;;;;;;5073791;28;20445;-80
2022/10/27 01:36:53;;;;;;;17.67;3.60;;;9.40;99.90;;;;;;5073923;28;20920;-80
2022/10/27 01:39:27;;;;;;;10.73;3.47;;;9.60;99.90;;;;;;5073764;28;20880;-81
2022/10/27 01:41:58;;;;;;;7.93;3.40;;;9.50;99.90;;;;;;5072542;28;20458;-80
2022/10/27 01:44:29;;;;;;;6.00;3.57;;;9.40;99.90;;;;;;5073550;28;20450;-80
2022/10/27 01:46:59;;;;;;;7.07;3.97;;;9.40;99.90;;;;;;5073612;28;20449;-80
2022/10/27 01:49:34;;;;;;;13.90;3.53;;;9.40;99.90;;;;;;5073580;28;20450;-80
2022/10/27 01:52:05;;;;;;;7.90;3.10;;;9.30;99.90;;;;;;5073414;28;20452;-80
2022/10/27 01:54:33;;;;;;;11.90;3.50;;;9.30;99.90;;;;;;5073443;28;21046;-80
2022/10/27 01:57:15;;;;;;;5.37;3.30;;;9.80;99.90;;;;;;5072324;28;20447;-80
2022/10/27 01:59:55;;;;;;;9.90;4.00;;;9.40;99.90;;;;;;5073297;28;20987;-80
2022/10/27 02:02:33;;;;;;;7.57;3.30;;;9.40;99.90;;;;;;5073205;28;20457;-81
2022/10/27 02:05:08;;;;;;;6.00;3.60;;;9.20;99.90;;;;;;5073340;28;20441;-80
2022/10/27 02:07:44;;;;;;;6.33;3.37;;;9.30;99.90;;;;;;5073276;28;20445;-81
2022/10/27 02:10:16;;;;;;;6.40;3.17;;;9.20;99.90;;;;;;5072963;28;20477;-80
2022/10/27 02:12:45;;;;;;;6.70;3.57;;;9.00;99.90;;;;;;5070368;28;20450;-80
2022/10/27 02:15:21;;;;;;;4.77;3.30;;;9.10;99.90;;;;;;5073911;28;20909;-80
2022/10/27 02:17:51;;;;;;;5.50;3.03;;;9.10;99.90;;;;;;5073078;28;20449;-80
2022/10/27 02:20:22;;;;;;;5.23;3.40;;;9.00;99.90;;;;;;5073041;28;20481;-80
2022/10/27 02:22:52;;;;;;;6.07;3.53;;;9.10;99.90;;;;;;5073139;28;20438;-81
2022/10/27 02:25:21;;;;;;;6.03;3.50;;;8.90;99.90;;;;;;5072764;28;20457;-80
2022/10/27 02:27:51;;;;;;;6.50;3.80;;;8.90;99.90;;;;;;5071499;28;20458;-80
2022/10/27 02:30:18;;;;;;;6.33;3.70;;;;;;;;;;5073018;28;20456;-80
2022/10/27 02:32:46;;;;;;;5.00;3.30;;;9.40;99.90;;;;;;5072928;28;20442;-80
2022/10/27 02:35:17;;;;;;;8.97;3.20;;;9.00;99.90;;;;;;5073170;28;20449;-80
2022/10/27 02:37:45;;;;;;;5.87;3.60;;;9.40;99.90;;;;;;5072963;28;20450;-80
2022/10/27 02:40:12;;;;;;;6.23;3.50;;;;;;;;;;5072728;28;20999;-80
2022/10/27 02:42:39;;;;;;;5.43;3.20;;;8.90;99.90;;;;;;5071711;28;20453;-80
2022/10/27 02:45:07;;;;;;;3.33;2.60;;;8.70;99.90;;;;;;5072990;28;20464;-80
2022/10/27 02:47:34;;;;;;;4.93;3.30;;;;;;;;;;5072746;28;20456;-80
2022/10/27 02:50:01;;;;;;;8.63;4.20;;;;;;;;;;5072752;28;20446;-81
2022/10/27 02:52:29;;;;;;;6.07;2.80;;;8.80;99.90;;;;;;5071085;28;20958;-80
2022/10/27 02:54:56;;;;;;;5.83;3.23;;;;;;;;;;5072430;28;20448;-80
2022/10/27 02:57:23;;;;;;;4.00;3.40;;;9.00;99.90;;;;;;5071406;28;20480;-80
2022/10/27 02:59:50;;;;;;;11.60;4.27;;;;;;;;;;5072647;28;20467;-80
2022/10/27 03:02:17;;;;;;;6.50;3.87;;;;;;;;;;5072520;28;20497;-80
2022/10/27 03:04:44;;;;;;;5.53;4.03;;;;;;;;;;5072727;28;20453;-80
2022/10/27 03:07:11;;;;;;;3.80;3.40;;;;;;;;;;5072617;28;20453;-80
2022/10/27 03:09:39;;;;;;;7.07;3.10;;;8.80;99.90;;;;;;5072480;28;20481;-81
2022/10/27 03:12:06;;;;;;;5.20;3.40;;;8.70;99.90;;;;;;5071799;28;20454;-80
2022/10/27 03:14:33;;;;;;;8.37;3.73;;;;;;;;;;5072522;28;20980;-80
2022/10/27 03:17:00;;;;;;;5.13;3.37;;;8.50;99.90;;;;;;5072564;28;20917;-81
2022/10/27 03:19:27;;;;;;;5.93;3.33;;;8.70;99.90;;;;;;5072748;28;20448;-80
2022/10/27 03:21:54;;;;;;;4.27;2.70;;;;;;;;;;5072206;28;20499;-80
2022/10/27 03:24:21;;;;;;;12.60;3.60;;;8.60;99.90;;;;;;5075992;28;20444;-80
2022/10/27 03:26:49;;;;;;;6.30;4.07;;;8.20;99.90;;;;;;5091814;28;20798;-80
2022/10/27 03:29:16;;;;;;;5.23;2.93;;;;;;;;;;5092664;28;20445;-80
2022/10/27 03:31:43;;;;;;;4.43;2.83;;;;;;;;;;5092652;28;20449;-80
2022/10/27 03:34:10;;;;;;;5.63;3.50;;;;;;;;;;5092501;28;20927;-80
2022/10/27 03:36:37;;;;;;;5.70;3.10;;;8.50;99.90;;;;;;5092687;28;20481;-81
2022/10/27 03:39:04;;;;;;;8.10;3.97;;;8.60;99.90;;;;;;5096247;28;20441;-80
2022/10/27 03:41:31;;;;;;;3.90;3.30;;;8.10;99.90;;;;;;5095133;28;20488;-80
2022/10/27 03:43:59;;;;;;;4.83;3.47;;;8.60;99.90;;;;;;5096274;28;20743;-81
2022/10/27 03:46:26;;;;;;;5.43;3.20;;;;;;;;;;5096254;28;20451;-80
2022/10/27 03:48:54;;;;;;;5.53;3.50;;;8.40;99.90;;;;;;5095987;28;20445;-80
2022/10/27 03:51:21;;;;;;;5.50;3.53;;;8.30;99.90;;;;;;5096126;28;20449;-80
2022/10/27 03:53:48;;;;;;;8.50;3.60;;;;;;;;;;5096105;28;20451;-80
2022/10/27 03:56:15;;;;;;;5.23;3.20;;;;;;;;;;5094884;28;21315;-80
2022/10/27 03:58:42;;;;;;;5.70;3.43;;;8.30;99.90;;;;;;5095948;28;20445;-80
2022/10/27 04:01:11;;;;;;;4.77;3.50;;;8.40;99.90;;;;;;5095823;28;20499;-80
2022/10/27 04:03:38;;;;;;;4.90;3.40;;;;;;;;;;5095811;28;20440;-80
2022/10/27 04:06:05;;;;;;;5.63;3.80;;;8.20;99.90;;;;;;5095908;28;20804;-80
2022/10/27 04:08:32;;;;;;;7.40;3.43;;;8.40;99.90;;;;;;5095794;28;20788;-81
2022/10/27 04:10:59;;;;;;;5.47;3.80;;;;;;;;;;5094338;28;20477;-80
2022/10/27 04:13:26;;;;;;;6.40;4.93;;;;;;;;;;5092802;28;20464;-80
2022/10/27 04:15:54;;;;;;;4.90;3.40;;;;;;;;;;5095557;28;20444;-80
2022/10/27 04:18:22;;;;;;;6.40;4.10;;;8.30;99.90;;;;;;5095242;28;20503;-80
2022/10/27 04:20:49;;;;;;;7.80;3.57;;;8.40;99.90;;;;;;5092515;28;20507;-80
2022/10/27 04:23:16;;;;;;;6.40;4.40;;;8.40;99.90;;;;;;5091461;28;20451;-80
2022/10/27 04:25:44;;;;;;;6.13;3.90;;;8.50;99.90;;;;;;5095443;28;20527;-80
2022/10/27 04:28:11;;;;;;;3.53;3.03;;;8.40;99.90;;;;;;5094340;28;20455;-81
2022/10/27 04:30:38;;;;;;;5.20;4.00;;;8.10;99.90;;;;;;5095662;28;20460;-80
2022/10/27 04:33:05;;;;;;;7.50;4.20;;;;;;;;;;5095539;28;20468;-81
2022/10/27 04:35:33;;;;;;;6.70;4.13;;;8.40;99.90;;;;;;5095738;28;20444;-80
2022/10/27 04:38:00;;;;;;;7.93;4.40;;;;;;;;;;5095769;28;20440;-80
2022/10/27 04:40:27;;;;;;;6.43;4.07;;;;;;;;;;5095197;28;20457;-80
2022/10/27 04:42:55;;;;;;;9.63;4.20;;;;;;;;;;5093655;28;20444;-80
2022/10/27 04:45:22;;;;;;;17.13;4.70;;;8.40;99.90;;;;;;5094864;28;20452;-80
2022/10/27 04:47:49;;;;;;;6.60;3.53;;;;;;;;;;5095176;28;20441;-80
2022/10/27 04:50:17;;;;;;;5.90;4.47;;;8.20;99.90;;;;;;5094588;28;20436;-80
2022/10/27 04:52:54;;;;;;;5.40;3.80;;;8.00;99.90;;;;;;5095129;28;20947;-80
2022/10/27 04:55:21;;;;;;;9.10;4.10;;;;;;;;;;5095058;28;20942;-81
2022/10/27 04:57:48;;;;;;;7.87;4.20;;;;;;;;;;5093580;28;20449;-80
2022/10/27 05:00:16;;;;;;;5.57;3.63;;;8.40;99.90;;;;;;5094512;28;20460;-80
2022/10/27 05:02:43;;;;;;;5.50;3.93;;;;;;;;;;5095326;28;20489;-80
2022/10/27 05:05:10;;;;;;;4.17;3.50;;;;;;;;;;5095122;28;20440;-80
2022/10/27 05:07:37;;;;;;;7.17;4.07;;;;;;;;;;5095154;28;20449;-81
2022/10/27 05:10:06;;;;;;;7.37;4.67;;;7.70;99.90;;;;;;5095148;28;20856;-80
2022/10/27 05:12:33;;;;;;;10.50;6.53;;;;;;;;;;5094840;28;20453;-80
2022/10/27 05:15:01;;;;;;;10.70;5.37;;;8.50;99.90;;;;;;5094983;28;20524;-80
2022/10/27 05:17:28;;;;;;;6.33;3.67;;;8.40;99.90;;;;;;5094770;28;20445;-80
2022/10/27 05:19:55;;;;;;;9.60;5.20;;;;;;;;;;5113489;28;20549;-81
2022/10/27 05:22:22;;;;;;;8.40;4.60;;;8.20;99.90;;;;;;5113161;28;20503;-81
2022/10/27 05:24:48;;;;;;;6.60;4.33;;;8.30;99.90;;;;;;5094799;28;20457;-80
2022/10/27 05:27:16;;;;;;;6.60;4.37;;;8.20;99.90;;;;;;5094568;28;20449;-80
2022/10/27 05:29:43;;;;;;;11.73;5.83;;;8.40;99.90;;;;;;5094400;28;20445;-80
2022/10/27 05:32:10;;;;;;;9.47;5.50;;;8.40;99.90;;;;;;5094243;28;20452;-81
2022/10/27 05:34:37;;;;;;;7.60;4.80;;;8.40;99.90;;;;;;5094041;28;20445;-80
2022/10/27 05:37:04;;;;;;;7.03;5.27;;;;;;;;;;5094124;28;20460;-81
2022/10/27 05:39:30;;;;;;;12.50;5.77;;;8.30;99.90;;;;;;5093921;28;20452;-81
2022/10/27 05:41:58;;;;;;;14.10;5.80;;;;;;;;;;5092861;28;20503;-80
2022/10/27 05:44:26;;;;;;;11.90;5.77;;;8.70;99.90;;;;;;5092546;28;20948;-80
2022/10/27 05:46:55;;;;;;;10.97;6.50;;;8.40;99.90;;;;;;5082544;28;20822;-80
2022/10/27 05:49:22;;;;;;;10.93;6.40;;;;;;;;;;5073624;28;20452;-81
2022/10/27 05:51:49;;;;;;;9.07;6.00;;;8.50;99.90;;;;;;5073443;28;20453;-83
2022/10/27 05:54:16;;;;;;;10.30;5.43;;;;;;;;;;5073477;28;20498;-81
2022/10/27 05:56:43;;;;;;;7.63;5.40;;;;;;;;;;5071890;28;20453;-81
2022/10/27 05:59:11;;;;;;;8.63;5.27;;;8.50;99.90;;;;;;5073417;28;20478;-81
2022/10/27 06:01:39;;;;;;;18.73;7.67;;;8.80;99.90;;;;;;5072572;28;20485;-81
2022/10/27 06:04:06;;;;;;;11.60;7.33;;;;;;;;;;5073332;28;20944;-80
2022/10/27 06:06:33;;;;;;;12.30;6.97;;;;;;;;;;5073112;28;20433;-80
2022/10/27 06:09:00;;;;;;;24.87;7.23;;;9.40;99.90;;;;;;5073200;28;20450;-80
2022/10/27 06:11:27;;;;;;;11.70;7.70;;;9.60;99.90;;;;;;5072018;28;20929;-83
2022/10/27 06:13:54;;;;;;;15.13;8.70;;;9.70;99.90;;;;;;5050461;28;20441;-85
2022/10/27 06:16:21;;;;;;;13.53;7.70;;;9.70;99.90;;;;;;5069094;28;20457;-82
2022/10/27 06:18:49;;;;;;;15.97;7.97;;;9.60;99.90;;;;;;5073084;28;20446;-81
2022/10/27 06:21:16;;;;;;;12.97;7.30;;;;;;;;;;5072917;28;20449;-82
2022/10/27 06:23:44;;;;;;;11.10;7.63;;;;;;;;;;5072969;28;20984;-83
2022/10/27 06:26:11;;;;;;;24.17;11.57;;;9.70;99.90;;;;;;5071926;28;20453;-84
2022/10/27 06:28:38;;;;;;;24.80;9.87;;;;;;;;;;5073083;28;20452;-82
2022/10/27 06:31:05;;;;;;;26.93;9.73;;;;;;;;;;5072837;28;20460;-83
2022/10/27 06:33:33;;;;;;;11.57;8.03;;;;;;;;;;5072920;28;20446;-82
2022/10/27 06:36:01;;;;;;;14.20;8.27;;;10.30;99.90;;;;;;5073006;28;20952;-83
2022/10/27 06:38:28;;;;;;;15.40;8.23;;;;;;;;;;5073047;28;20458;-84
2022/10/27 06:40:55;;;;;;;11.83;7.20;;;;;;;;;;5072116;28;20441;-84
2022/10/27 06:43:22;;;;;;;18.10;6.90;;;;;;;;;;5072617;28;20542;-84
2022/10/27 06:45:49;;;;;;;11.60;7.10;;;;;;;;;;5072834;28;20442;-82
2022/10/27 06:48:17;;;;;;;15.63;7.00;;;;;;;;;;5072758;28;20454;-83
2022/10/27 06:50:44;;;;;;;12.70;7.93;;;;;;;;;;5072856;28;20467;-85
2022/10/27 06:53:12;;;;;;;24.47;8.33;;;10.90;99.90;;;;;;5072790;28;20445;-85
2022/10/27 06:55:39;;;;;;;11.13;8.40;;;;;;;;;;5072688;28;20442;-81
2022/10/27 06:58:06;;;;;;;15.73;8.10;;;;;;;;;;5071529;28;20442;-83
2022/10/27 07:00:33;;;;;;;11.33;9.73;;;;;;;;;;5072572;28;20476;-81
2022/10/27 07:03:00;;;;;;;18.43;8.27;;;;;;;;;;5072485;28;20493;-82
2022/10/27 07:05:27;;;;;;;17.23;8.63;;;;;;;;;;5072528;28;20959;-83
2022/10/27 07:07:54;;;;;;;11.00;8.43;;;;;;;;;;5072629;28;20453;-82
2022/10/27 07:10:23;;;;;;;23.63;9.33;;;12.10;99.90;;;;;;5072380;28;20477;-82
2022/10/27 07:12:54;;;;;;;17.77;8.20;;;12.10;99.90;;;;;;5072899;28;20462;-78
2022/10/27 07:15:21;;;;;;;13.47;8.03;;;;;;;;;;5076484;28;20452;-82
2022/10/27 07:17:49;;;;;;;10.30;6.90;;;;;;;;;;5074844;28;20445;-82
2022/10/27 07:20:15;;;;;;;9.03;6.00;;;13.40;99.90;;;;;;5077117;28;20445;-82
2022/10/27 07:22:43;;;;;;;12.57;6.33;;;;;;;;;;5076280;28;20842;-82
2022/10/27 07:25:10;;;;;;;10.60;6.77;;;;;;;;;;5074605;28;20461;-85
2022/10/27 07:27:38;;;;;;;11.63;6.30;;;15.20;99.90;;;;;;5070280;28;20453;-84
2022/10/27 07:30:06;;;;;;;6.47;5.20;;;15.60;99.90;;;;;;5075697;28;20983;-85
2022/10/27 07:32:33;;;;;;;9.93;5.10;;;;;;;;;;5077609;28;20818;-84
2022/10/27 07:35:04;;;;;;;9.10;5.30;;;16.30;99.90;;;;;;5081187;28;20453;-82
2022/10/27 07:37:31;;;;;;;8.23;4.60;;;;;;;;;;5096508;28;20444;-80
2022/10/27 07:39:58;;;;;;;7.27;5.10;;;16.70;99.90;;;;;;5096292;28;20445;-82
2022/10/27 07:42:26;;;;;;;10.40;5.37;;;;;;;;;;5095217;28;20488;-81
2022/10/27 07:44:54;;;;;;;12.07;5.13;;;17.30;99.90;;;;;;5096063;28;20997;-82
2022/10/27 07:47:20;;;;;;;9.30;4.47;;;18.00;99.90;;;;;;5096480;28;20452;-81
2022/10/27 07:49:48;;;;;;;9.50;4.37;;;;;;;;;;5096285;28;20778;-84
2022/10/27 07:52:14;;;;;;;5.90;4.30;;;18.40;99.90;;;;;;5109685;28;20482;-82
2022/10/27 07:54:41;;;;;;;10.10;3.30;;;;;;;;;;5113166;28;20954;-81
2022/10/27 07:57:10;;;;;;;7.57;3.83;;;19.00;99.90;;;;;;5095655;28;20436;-81
2022/10/27 07:59:37;;;;;;;7.03;3.17;;;;;;;;;;5095891;28;20461;-80
2022/10/27 08:02:05;;;;;;;6.63;3.10;;;18.70;99.90;;;;;;5095820;28;20480;-78
2022/10/27 08:04:32;;;;;;;7.50;3.00;;;;;;;;;;5095879;28;20808;-79
2022/10/27 08:07:01;;;;;;;5.93;2.63;;;17.80;99.90;;;;;;5095881;28;20448;-79
2022/10/27 08:09:28;;;;;;;5.70;2.40;;;;;;;;;;5095553;28;21002;-80
2022/10/27 08:11:54;;;;;;;4.80;2.70;;;17.20;99.90;;;;;;5094357;28;21085;-79
2022/10/27 08:14:21;;;;;;;6.60;3.20;;;17.50;99.90;;;;;;5095677;28;20444;-79
2022/10/27 08:16:48;;;;;;;6.67;2.60;;;;;;;;;;5095684;28;20451;-78
2022/10/27 08:19:16;;;;;;;10.10;2.57;;;18.30;99.90;;;;;;5095673;28;20451;-77
2022/10/27 08:21:43;;;;;;;5.93;2.70;;;;;;;;;;5095349;28;20455;-80
2022/10/27 08:24:10;;;;;;;4.60;2.23;;;;;;;;;;5094098;28;20932;-81
2022/10/27 08:26:37;;;;;;;4.20;2.37;;;;;;;;;;5094296;28;20465;-81
2022/10/27 08:29:05;;;;;;;5.80;2.40;;;;;;;;;;5095363;28;20445;-83
2022/10/27 08:31:31;;;;;;;4.20;2.50;;;18.30;99.90;;;;;;5095406;28;20456;-82
2022/10/27 08:33:58;;;;;;;4.70;2.43;;;;;;;;;;5095320;28;20826;-81
2022/10/27 08:36:27;;;;;;;8.77;2.80;;;18.10;99.90;;;;;;5095356;28;20463;-78
2022/10/27 08:38:53;;;;;;;7.33;2.73;;;18.90;99.90;;;;;;5095112;28;20449;-78
2022/10/27 08:41:26;;;;;;;7.30;2.47;;;19.20;99.90;;;;;;5093804;28;20449;-77
2022/10/27 08:44:03;;;;;;;6.10;2.70;;;19.10;99.90;;;;;;5094962;28;20495;-77
2022/10/27 08:46:36;;;;;;;2.87;2.53;;;20.30;99.90;;;;;;5094988;28;20457;-80
2022/10/27 08:49:06;;;;;;;7.43;2.30;;;19.40;99.90;;;;;;5095014;28;20824;-82
2022/10/27 08:51:35;;;;;;;11.63;2.77;;;19.50;99.90;;;;;;5094370;28;20453;-78
2022/10/27 08:54:02;;;;;;;7.07;2.50;;;;;;;;;;5094663;28;20456;-77
2022/10/27 08:56:35;;;;;;;8.50;2.30;;;20.20;99.90;;;;;;5093478;28;20445;-76
2022/10/27 08:59:03;;;;;;;9.37;1.97;;;20.20;99.90;;;;;;5094679;28;20469;-78
2022/10/27 09:01:35;;;;;;;5.63;2.67;;;20.20;99.90;;;;;;5094746;28;20441;-76
2022/10/27 09:04:12;;;;;;;6.17;2.50;;;20.90;97.70;;;;;;5094517;28;20495;-77
2022/10/27 09:06:49;;;;;;;5.00;2.90;;;20.50;97.60;;;;;;5094545;28;20954;-76
2022/10/27 09:09:29;;;;;;;3.73;2.40;;;21.60;99.30;;;;;;5094295;28;20991;-80
2022/10/27 09:12:03;;;;;;;7.70;2.60;;;20.40;99.90;;;;;;5093101;28;20471;-77
2022/10/27 09:14:51;;;;;;;10.13;2.90;;;20.80;99.90;;;;;;5094024;28;20444;-78
2022/10/27 09:17:24;;;;;;;6.93;2.87;;;19.80;99.90;;;;;;5094504;28;20814;-78
2022/10/27 09:20:00;;;;;;;7.13;2.50;;;20.10;99.90;;;;;;5094369;28;20468;-79
2022/10/27 09:22:30;;;;;;;8.50;2.67;;;20.10;99.90;;;;;;5094289;28;20490;-79
2022/10/27 09:25:02;;;;;;;5.77;2.40;;;19.80;99.90;;;;;;5094168;28;20449;-79
2022/10/27 09:27:29;;;;;;;4.50;2.47;;;;;;;;;;5090242;28;20456;-80
2022/10/27 09:30:00;;;;;;;6.30;1.90;;;21.20;99.90;;;;;;5094191;28;20448;-81
2022/10/27 09:32:28;;;;;;;9.40;2.37;;;;;;;;;;5094210;28;20449;-79
2022/10/27 09:35:01;;;;;;;4.43;2.77;;;21.20;96.00;;;;;;5094114;28;20452;-80
2022/10/27 09:37:31;;;;;;;5.43;2.57;;;20.70;99.90;;;;;;5094008;28;20536;-82
2022/10/27 09:39:58;;;;;;;5.33;2.53;;;;;;;;;;5055787;28;20474;-82
2022/10/27 09:42:26;;;;;;;3.10;1.77;;;;;;;;;;5092669;28;20542;-79
2022/10/27 09:44:55;;;;;;;3.97;2.23;;;20.80;95.80;;;;;;5093872;28;20936;-79
2022/10/27 09:47:23;;;;;;;7.13;2.20;;;21.60;94.50;;;;;;5093436;28;20445;-85
2022/10/27 09:49:52;;;;;;;6.77;2.53;;;22.60;93.20;;;;;;5093669;28;20945;-83
2022/10/27 09:52:24;;;;;;;4.73;2.50;;;22.90;92.20;;;;;;5093709;28;20474;-82
2022/10/27 09:54:53;;;;;;;4.30;2.20;;;22.30;93.50;;;;;;5093346;28;20456;-80
2022/10/27 09:57:25;;;;;;;5.17;2.07;;;23.10;91.60;;;;;;5092523;28;20452;-79
2022/10/27 09:59:57;;;;;;;5.60;2.43;;;22.60;99.90;;;;;;5093985;28;20441;-80
2022/10/27 10:02:26;;;;;;;6.23;2.90;;;23.80;93.50;;;;;;5093114;28;20441;-81
2022/10/27 10:04:53;;;;;;;6.03;2.50;;;;;;;;;;5093581;28;20452;-78
2022/10/27 10:07:33;;;;;;;7.63;3.10;;;21.30;94.50;;;;;;5085393;28;20458;-80
2022/10/27 10:10:07;;;;;;;8.43;2.40;;;21.00;95.60;;;;;;5075681;28;20485;-83
2022/10/27 10:12:34;;;;;;;2.53;2.03;;;;;;;;;;5089191;28;20456;-83
2022/10/27 10:15:19;;;;;;;4.13;1.90;;;21.30;94.80;;;;;;5082713;28;20446;-83
2022/10/27 10:17:56;;;;;;;6.23;2.60;;;22.50;99.90;;;;;;5076584;28;20833;-81
2022/10/27 10:20:35;;;;;;;4.40;2.23;;;22.40;94.70;;;;;;5072627;28;20857;-80
2022/10/27 10:23:03;;;;;;;3.60;2.40;;;22.70;92.70;;;;;;5072074;28;20856;-83
2022/10/27 10:25:40;;;;;;;3.83;2.60;;;23.40;99.90;;;;;;5084121;28;20465;-78
2022/10/27 10:28:07;;;;;;;5.23;2.17;;;;;;;;;;5084518;28;20453;-81
2022/10/27 10:30:37;;;;;;;2.80;1.80;;;23.80;99.90;;;;;;5072877;28;20449;-81
2022/10/27 10:33:06;;;;;;;3.40;2.30;;;23.40;99.90;;;;;;5073803;28;20453;-78
2022/10/27 10:35:45;;;;;;;11.97;3.33;;;24.40;97.00;;;;;;5072816;28;20479;-79
2022/10/27 10:38:36;;;;;;;9.00;2.70;;;24.40;97.80;;;;;;5072708;28;20822;-79
2022/10/27 10:41:10;;;;;;;4.10;2.20;;;24.10;97.50;;;;;;5070838;28;20503;-80
2022/10/27 10:43:37;;;;;;;5.20;1.90;;;;;;;;;;5073020;28;20491;-81
2022/10/27 10:46:05;;;;;;;3.70;2.20;;;;;;;;;;5088378;28;20477;-83
2022/10/27 10:48:38;;;;;;;5.37;2.00;;;23.20;84.50;;;;;;5091782;28;20563;-84
2022/10/27 10:51:06;;;;;;;5.03;2.00;;;;;;;;;;5092883;28;20452;-85
2022/10/27 10:53:37;;;;;;;4.70;2.23;;;23.90;79.60;;;;;;5092882;28;20800;-84
2022/10/27 10:56:19;;;;;;;4.57;2.20;;;24.00;99.90;;;;;;5091417;28;20453;-80
2022/10/27 10:58:47;;;;;;;4.47;2.17;;;22.80;83.60;;;;;;5093097;28;20440;-80
2022/10/27 11:01:14;;;;;;;3.27;1.70;;;;;;;;;;5092370;28;20445;-80
2022/10/27 11:03:46;;;;;;;5.77;1.87;;;23.40;99.90;;;;;;5093794;28;20492;-88
2022/10/27 11:06:17;;;;;;;5.53;2.07;;;24.20;99.20;;;;;;5057728;28;20506;-83
2022/10/27 11:08:51;;;;;;;6.40;2.30;;;24.00;82.00;;;;;;5092730;28;20522;-82
2022/10/27 11:11:22;;;;;;;3.33;2.20;;;24.60;99.90;;;;;;5091840;28;20452;-80
2022/10/27 11:13:54;;;;;;;3.40;1.83;;;24.60;78.60;;;;;;5092720;28;20448;-80
2022/10/27 11:16:21;;;;;;;4.10;1.73;;;;;;;;;;5093671;28;20928;-86
2022/10/27 11:18:51;;;;;;;4.90;2.07;;;23.90;80.40;;;;;;5093650;28;20448;-82
2022/10/27 11:21:28;;;;;;;6.17;2.27;;;24.10;78.10;;;;;;5092958;28;20444;-85
2022/10/27 11:23:57;;;;;;;2.97;1.50;;;23.50;97.30;;;;;;5093077;28;20492;-84
2022/10/27 11:26:32;;;;;;;2.67;1.70;;;23.90;81.70;;;;;;5091384;28;20440;-79
2022/10/27 11:29:12;;;;;;;3.27;1.77;;;24.40;82.50;;;;;;5091348;28;20444;-81
2022/10/27 11:31:49;;;;;;;3.70;2.07;;;24.80;80.80;;;;;;5092475;28;20448;-80
2022/10/27 11:34:24;;;;;;;5.43;2.10;;;24.80;81.60;;;;;;5092432;28;20448;-81
2022/10/27 11:36:56;;;;;;;4.47;1.83;;;24.80;79.90;;;;;;5092687;28;20441;-80
2022/10/27 11:39:30;;;;;;;7.33;2.40;;;24.80;99.90;;;;;;5092549;28;20455;-81
2022/10/27 11:42:09;;;;;;;4.60;2.10;;;24.60;80.20;;;;;;5091462;28;20444;-80
2022/10/27 11:44:43;;;;;;;5.43;2.13;;;28.10;82.90;;;;;;5091788;28;20488;-90
2022/10/27 11:47:14;;;;;;;4.03;2.17;;;24.70;80.90;;;;;;5092806;28;20445;-84
2022/10/27 11:49:48;;;;;;;5.60;2.43;;;24.90;80.60;;;;;;5092468;28;20444;-84
2022/10/27 11:52:20;;;;;;;5.43;2.37;;;25.20;78.80;;;;;;5090962;28;20452;-83
2022/10/27 11:54:47;;;;;;;4.70;1.93;;;24.70;78.30;;;;;;5089893;28;20452;-83
2022/10/27 11:57:30;;;;;;;3.20;1.93;;;24.90;78.10;;;;;;5091189;28;20468;-82
2022/10/27 12:00:08;;;;;;;3.23;1.70;;;24.20;99.90;;;;;;5094122;28;20455;-81
2022/10/27 12:03:04;;;;;;;5.47;2.33;;;24.60;82.00;;;;;;5095962;28;20452;-81
2022/10/27 12:05:37;;;;;;;7.30;1.90;;;24.70;80.30;;;;;;5095742;28;20471;-83
2022/10/27 12:08:12;;;;;;;3.07;1.67;;;24.70;78.60;;;;;;5094440;28;20453;-81
2022/10/27 12:10:49;;;;;;;2.50;1.70;;;25.40;76.30;;;;;;5093442;28;20472;-82
2022/10/27 12:13:23;;;;;;;3.97;1.77;;;25.20;79.00;;;;;;5093533;28;20440;-83
2022/10/27 12:15:55;;;;;;;3.10;1.90;;;24.90;77.70;;;;;;5096026;28;20452;-80
2022/10/27 12:18:28;;;;;;;3.83;1.73;;;25.20;77.40;;;;;;5095848;28;20488;-81
2022/10/27 12:21:00;;;;;;;7.30;1.50;;;25.70;76.10;;;;;;5095729;28;20445;-80
2022/10/27 12:23:32;;;;;;;3.37;1.57;;;25.90;76.30;;;;;;5096254;28;20841;-80
2022/10/27 12:26:06;;;;;;;5.37;1.93;;;26.30;87.10;;;;;;5094828;28;20463;-80
2022/10/27 12:28:35;;;;;;;8.10;2.23;;;26.40;94.00;;;;;;5093933;28;20475;-80
2022/10/27 12:31:07;;;;;;;4.23;1.77;;;26.40;72.40;;;;;;5094045;28;20445;-78
2022/10/27 12:33:40;;;;;;;3.03;1.43;;;26.70;92.90;;;;;;5095585;28;20445;-80
2022/10/27 12:36:14;;;;;;;7.57;2.20;;;26.50;72.40;;;;;;5094986;28;20475;-80
2022/10/27 12:38:49;;;;;;;3.83;2.23;;;26.30;71.90;;;;;;5095244;28;20440;-79
2022/10/27 12:41:27;;;;;;;2.03;1.53;;;26.10;73.60;;;;;;5093860;28;20917;-81
2022/10/27 12:44:05;;;;;;;8.00;2.17;;;26.40;71.70;;;;;;5095230;28;20524;-82
2022/10/27 12:46:46;;;;;;;3.50;2.30;;;26.40;91.10;;;;;;5095137;28;20459;-80
2022/10/27 12:49:22;;;;;;;3.07;1.63;;;25.70;91.30;;;;;;5095174;28;20449;-82
2022/10/27 12:51:54;;;;;;;6.80;1.60;;;26.00;91.10;;;;;;5059717;28;20440;-79
2022/10/27 12:54:40;;;;;;;4.17;1.97;;;26.20;95.50;;;;;;5095169;28;20456;-78
2022/10/27 12:57:25;;;;;;;6.30;2.23;;;26.00;91.00;;;;;;5093877;28;20448;-79
2022/10/27 13:00:02;;;;;;;2.40;1.43;;;25.60;73.40;;;;;;5108779;28;20451;-80
2022/10/27 13:02:33;;;;;;;5.97;1.90;;;25.70;97.00;;;;;;5115090;28;20931;-80
2022/10/27 13:06:00;;;;;;;4.67;1.50;;;25.50;95.70;;;;;;5094853;28;20495;-81
2022/10/27 13:08:56;;;;;;;3.13;1.63;;;25.10;97.10;;;;;;5058507;28;20453;-83
2022/10/27 13:11:32;;;;;;;7.17;2.60;;;24.20;94.50;;;;;;5067323;28;20445;-81
2022/10/27 13:14:18;;;;;;;2.60;1.63;;;25.20;73.30;;;;;;5094574;28;20456;-82
2022/10/27 13:16:57;;;;;;;5.20;1.67;;;24.80;79.30;;;;;;5094477;28;20451;-80
2022/10/27 13:19:38;;;;;;;3.77;1.97;;;25.70;96.50;;;;;;5094845;28;20459;-81
2022/10/27 13:22:10;;;;;;;2.80;1.70;;;26.10;93.80;;;;;;5094137;28;20455;-80
2022/10/27 13:24:44;;;;;;;4.77;2.07;;;24.60;69.80;;;;;;5093883;28;20508;-81
2022/10/27 13:27:20;;;;;;;11.50;2.27;;;25.50;90.10;;;;;;5093184;28;20448;-83
2022/10/27 13:29:51;;;;;;;3.13;1.80;;;25.40;94.90;;;;;;5092900;28;20468;-80
2022/10/27 13:32:39;;;;;;;5.20;1.73;;;25.60;80.90;;;;;;5094326;28;20452;-81
2022/10/27 13:35:32;;;;;;;4.00;2.07;;;25.80;90.10;;;;;;5093904;28;20480;-82
2022/10/27 13:38:22;;;;;;;4.13;1.87;;;25.90;90.20;;;;;;5094306;28;20445;-84